sensor_id;sensor_type;location;lat;lon;timestamp;P1;durP1;ratioP1;P2;durP2;ratioP2
8737;SDS011;4405;49.272;8.590;2022-08-01T00:01:11;2.80;;;2.60;;
8737;SDS011;4405;49.272;8.590;2022-08-01T00:03:37;2.77;;;2.37;;
8737;SDS011;4405;49.272;8.590;2022-08-01T00:06:04;3.10;;;2.90;;
8737;SDS011;4405;49.272;8.590;2022-08-01T00:08:30;2.83;;;2.63;;
8737;SDS011;4405;49.272;8.590;2022-08-01T00:10:56;2.60;;;2.40;;
8737;SDS011;4405;49.272;8.590;2022-08-01T00:13:24;3.07;;;2.63;;
8737;SDS011;4405;49.272;8.590;2022-08-01T00:15:51;3.40;;;2.80;;
8737;SDS011;4405;49.272;8.590;2022-08-01T00:18:17;2.70;;;2.60;;
8737;SDS011;4405;49.272;8.590;2022-08-01T00:20:43;2.97;;;2.77;;
8737;SDS011;4405;49.272;8.590;2022-08-01T00:23:10;2.93;;;2.63;;
8737;SDS011;4405;49.272;8.590;2022-08-01T00:25:36;4.97;;;2.70;;
8737;SDS011;4405;49.272;8.590;2022-08-01T00:28:02;2.87;;;2.67;;
8737;SDS011;4405;49.272;8.590;2022-08-01T00:30:30;4.03;;;3.00;;
8737;SDS011;4405;49.272;8.590;2022-08-01T00:32:56;2.90;;;2.70;;
8737;SDS011;4405;49.272;8.590;2022-08-01T00:35:23;2.70;;;2.60;;
8737;SDS011;4405;49.272;8.590;2022-08-01T00:37:49;2.53;;;2.33;;
8737;SDS011;4405;49.272;8.590;2022-08-01T00:40:16;3.10;;;2.70;;
8737;SDS011;4405;49.272;8.590;2022-08-01T00:42:42;2.57;;;2.47;;
8737;SDS011;4405;49.272;8.590;2022-08-01T00:45:09;3.00;;;2.77;;
8737;SDS011;4405;49.272;8.590;2022-08-01T00:47:37;3.10;;;2.80;;
8737;SDS011;4405;49.272;8.590;2022-08-01T00:50:04;2.87;;;2.60;;
8737;SDS011;4405;49.272;8.590;2022-08-01T00:52:30;3.13;;;2.93;;
8737;SDS011;4405;49.272;8.590;2022-08-01T00:54:57;3.23;;;3.03;;
8737;SDS011;4405;49.272;8.590;2022-08-01T00:57:23;2.90;;;2.70;;
8737;SDS011;4405;49.272;8.590;2022-08-01T00:59:50;2.50;;;2.40;;
8737;SDS011;4405;49.272;8.590;2022-08-01T01:02:16;2.73;;;2.53;;
8737;SDS011;4405;49.272;8.590;2022-08-01T01:04:44;2.93;;;2.73;;
8737;SDS011;4405;49.272;8.590;2022-08-01T01:07:13;3.00;;;2.83;;
8737;SDS011;4405;49.272;8.590;2022-08-01T01:09:44;4.70;;;2.60;;
8737;SDS011;4405;49.272;8.590;2022-08-01T01:12:13;2.50;;;2.40;;
8737;SDS011;4405;49.272;8.590;2022-08-01T01:14:42;3.50;;;2.77;;
8737;SDS011;4405;49.272;8.590;2022-08-01T01:17:11;2.90;;;2.67;;
8737;SDS011;4405;49.272;8.590;2022-08-01T01:19:39;2.63;;;2.53;;
8737;SDS011;4405;49.272;8.590;2022-08-01T01:22:25;2.57;;;2.47;;
8737;SDS011;4405;49.272;8.590;2022-08-01T01:24:58;2.90;;;2.70;;
8737;SDS011;4405;49.272;8.590;2022-08-01T01:27:29;2.53;;;2.50;;
8737;SDS011;4405;49.272;8.590;2022-08-01T01:30:02;2.57;;;2.47;;
8737;SDS011;4405;49.272;8.590;2022-08-01T01:32:29;2.90;;;2.73;;
8737;SDS011;4405;49.272;8.590;2022-08-01T01:34:59;3.07;;;2.87;;
8737;SDS011;4405;49.272;8.590;2022-08-01T01:37:26;2.87;;;2.70;;
8737;SDS011;4405;49.272;8.590;2022-08-01T01:39:53;2.70;;;2.60;;
8737;SDS011;4405;49.272;8.590;2022-08-01T01:42:20;2.63;;;2.53;;
8737;SDS011;4405;49.272;8.590;2022-08-01T01:44:46;2.80;;;2.70;;
8737;SDS011;4405;49.272;8.590;2022-08-01T01:47:16;3.00;;;2.80;;
8737;SDS011;4405;49.272;8.590;2022-08-01T01:49:43;3.10;;;2.90;;
8737;SDS011;4405;49.272;8.590;2022-08-01T01:52:10;5.87;;;2.70;;
8737;SDS011;4405;49.272;8.590;2022-08-01T01:54:39;3.00;;;2.80;;
8737;SDS011;4405;49.272;8.590;2022-08-01T01:57:06;3.07;;;2.87;;
8737;SDS011;4405;49.272;8.590;2022-08-01T01:59:34;3.00;;;2.80;;
8737;SDS011;4405;49.272;8.590;2022-08-01T02:02:02;2.87;;;2.60;;
8737;SDS011;4405;49.272;8.590;2022-08-01T02:04:30;3.07;;;2.83;;
8737;SDS011;4405;49.272;8.590;2022-08-01T02:06:58;2.80;;;2.70;;
8737;SDS011;4405;49.272;8.590;2022-08-01T02:09:25;4.43;;;3.00;;
8737;SDS011;4405;49.272;8.590;2022-08-01T02:11:52;2.93;;;2.73;;
8737;SDS011;4405;49.272;8.590;2022-08-01T02:14:19;3.03;;;2.87;;
8737;SDS011;4405;49.272;8.590;2022-08-01T02:16:47;2.63;;;2.53;;
8737;SDS011;4405;49.272;8.590;2022-08-01T02:19:14;3.10;;;2.90;;
8737;SDS011;4405;49.272;8.590;2022-08-01T02:21:44;2.80;;;2.57;;
8737;SDS011;4405;49.272;8.590;2022-08-01T02:24:12;3.10;;;3.00;;
8737;SDS011;4405;49.272;8.590;2022-08-01T02:26:41;2.90;;;2.80;;
8737;SDS011;4405;49.272;8.590;2022-08-01T02:29:09;2.80;;;2.60;;
8737;SDS011;4405;49.272;8.590;2022-08-01T02:31:38;3.10;;;2.90;;
8737;SDS011;4405;49.272;8.590;2022-08-01T02:34:06;3.40;;;3.07;;
8737;SDS011;4405;49.272;8.590;2022-08-01T02:36:33;3.20;;;3.00;;
8737;SDS011;4405;49.272;8.590;2022-08-01T02:39:03;2.90;;;2.80;;
8737;SDS011;4405;49.272;8.590;2022-08-01T02:41:30;3.27;;;3.00;;
8737;SDS011;4405;49.272;8.590;2022-08-01T02:44:00;3.00;;;2.90;;
8737;SDS011;4405;49.272;8.590;2022-08-01T02:46:29;3.13;;;2.90;;
8737;SDS011;4405;49.272;8.590;2022-08-01T02:48:58;3.40;;;3.10;;
8737;SDS011;4405;49.272;8.590;2022-08-01T02:51:26;3.17;;;2.87;;
8737;SDS011;4405;49.272;8.590;2022-08-01T02:53:54;3.13;;;2.93;;
8737;SDS011;4405;49.272;8.590;2022-08-01T02:56:22;3.13;;;2.93;;
8737;SDS011;4405;49.272;8.590;2022-08-01T02:58:48;3.80;;;3.17;;
8737;SDS011;4405;49.272;8.590;2022-08-01T03:01:15;3.07;;;2.87;;
8737;SDS011;4405;49.272;8.590;2022-08-01T03:03:43;5.23;;;3.30;;
8737;SDS011;4405;49.272;8.590;2022-08-01T03:06:09;3.30;;;3.00;;
8737;SDS011;4405;49.272;8.590;2022-08-01T03:08:37;2.80;;;2.70;;
8737;SDS011;4405;49.272;8.590;2022-08-01T03:11:03;3.13;;;2.97;;
8737;SDS011;4405;49.272;8.590;2022-08-01T03:13:32;3.23;;;3.00;;
8737;SDS011;4405;49.272;8.590;2022-08-01T03:15:59;4.10;;;3.37;;
8737;SDS011;4405;49.272;8.590;2022-08-01T03:18:25;3.40;;;2.93;;
8737;SDS011;4405;49.272;8.590;2022-08-01T03:20:53;3.77;;;3.17;;
8737;SDS011;4405;49.272;8.590;2022-08-01T03:23:20;3.20;;;3.00;;
8737;SDS011;4405;49.272;8.590;2022-08-01T03:25:47;3.90;;;3.10;;
8737;SDS011;4405;49.272;8.590;2022-08-01T03:28:15;5.50;;;3.27;;
8737;SDS011;4405;49.272;8.590;2022-08-01T03:30:43;3.30;;;3.10;;
8737;SDS011;4405;49.272;8.590;2022-08-01T03:33:10;3.10;;;2.90;;
8737;SDS011;4405;49.272;8.590;2022-08-01T03:35:37;2.97;;;2.70;;
8737;SDS011;4405;49.272;8.590;2022-08-01T03:38:05;3.60;;;3.37;;
8737;SDS011;4405;49.272;8.590;2022-08-01T03:40:35;3.20;;;3.00;;
8737;SDS011;4405;49.272;8.590;2022-08-01T03:43:02;2.90;;;2.80;;
8737;SDS011;4405;49.272;8.590;2022-08-01T03:45:31;3.47;;;3.27;;
8737;SDS011;4405;49.272;8.590;2022-08-01T03:48:02;3.00;;;2.90;;
8737;SDS011;4405;49.272;8.590;2022-08-01T03:50:30;3.37;;;3.20;;
8737;SDS011;4405;49.272;8.590;2022-08-01T03:52:59;3.20;;;3.00;;
8737;SDS011;4405;49.272;8.590;2022-08-01T03:55:26;4.13;;;3.10;;
8737;SDS011;4405;49.272;8.590;2022-08-01T03:57:52;3.80;;;3.50;;
8737;SDS011;4405;49.272;8.590;2022-08-01T04:00:19;3.27;;;3.07;;
8737;SDS011;4405;49.272;8.590;2022-08-01T04:02:46;3.10;;;3.00;;
8737;SDS011;4405;49.272;8.590;2022-08-01T04:05:14;3.33;;;3.13;;
8737;SDS011;4405;49.272;8.590;2022-08-01T04:07:44;3.13;;;2.93;;
8737;SDS011;4405;49.272;8.590;2022-08-01T04:10:12;3.20;;;2.90;;
8737;SDS011;4405;49.272;8.590;2022-08-01T04:12:38;3.83;;;2.97;;
8737;SDS011;4405;49.272;8.590;2022-08-01T04:15:05;5.33;;;3.20;;
8737;SDS011;4405;49.272;8.590;2022-08-01T04:17:31;3.03;;;2.93;;
8737;SDS011;4405;49.272;8.590;2022-08-01T04:19:58;3.30;;;3.00;;
8737;SDS011;4405;49.272;8.590;2022-08-01T04:22:26;3.20;;;3.00;;
8737;SDS011;4405;49.272;8.590;2022-08-01T04:24:53;3.13;;;2.93;;
8737;SDS011;4405;49.272;8.590;2022-08-01T04:27:24;4.13;;;2.80;;
8737;SDS011;4405;49.272;8.590;2022-08-01T04:29:53;2.87;;;2.70;;
8737;SDS011;4405;49.272;8.590;2022-08-01T04:32:21;3.13;;;2.93;;
8737;SDS011;4405;49.272;8.590;2022-08-01T04:34:48;3.60;;;3.30;;
8737;SDS011;4405;49.272;8.590;2022-08-01T04:37:15;3.03;;;2.83;;
8737;SDS011;4405;49.272;8.590;2022-08-01T04:39:44;4.07;;;2.70;;
8737;SDS011;4405;49.272;8.590;2022-08-01T04:42:11;4.80;;;2.90;;
8737;SDS011;4405;49.272;8.590;2022-08-01T04:44:39;3.03;;;2.90;;
8737;SDS011;4405;49.272;8.590;2022-08-01T04:47:06;3.67;;;2.87;;
8737;SDS011;4405;49.272;8.590;2022-08-01T04:49:33;3.50;;;3.20;;
8737;SDS011;4405;49.272;8.590;2022-08-01T04:52:00;2.43;;;2.33;;
8737;SDS011;4405;49.272;8.590;2022-08-01T04:54:26;3.17;;;2.93;;
8737;SDS011;4405;49.272;8.590;2022-08-01T04:56:54;3.37;;;3.07;;
8737;SDS011;4405;49.272;8.590;2022-08-01T04:59:24;3.67;;;2.90;;
8737;SDS011;4405;49.272;8.590;2022-08-01T05:02:06;3.20;;;3.00;;
8737;SDS011;4405;49.272;8.590;2022-08-01T05:04:32;2.80;;;2.70;;
8737;SDS011;4405;49.272;8.590;2022-08-01T05:06:59;4.70;;;2.67;;
8737;SDS011;4405;49.272;8.590;2022-08-01T05:09:25;2.60;;;2.50;;
8737;SDS011;4405;49.272;8.590;2022-08-01T05:11:52;3.13;;;2.50;;
8737;SDS011;4405;49.272;8.590;2022-08-01T05:14:20;2.97;;;2.77;;
8737;SDS011;4405;49.272;8.590;2022-08-01T05:16:47;3.00;;;2.73;;
8737;SDS011;4405;49.272;8.590;2022-08-01T05:19:13;3.13;;;2.60;;
8737;SDS011;4405;49.272;8.590;2022-08-01T05:21:39;3.47;;;2.63;;
8737;SDS011;4405;49.272;8.590;2022-08-01T05:24:06;2.70;;;2.60;;
8737;SDS011;4405;49.272;8.590;2022-08-01T05:26:32;3.40;;;2.50;;
8737;SDS011;4405;49.272;8.590;2022-08-01T05:28:59;2.43;;;2.33;;
8737;SDS011;4405;49.272;8.590;2022-08-01T05:31:26;2.90;;;2.70;;
8737;SDS011;4405;49.272;8.590;2022-08-01T05:33:53;2.70;;;2.50;;
8737;SDS011;4405;49.272;8.590;2022-08-01T05:36:20;2.67;;;2.47;;
8737;SDS011;4405;49.272;8.590;2022-08-01T05:38:46;2.80;;;2.60;;
8737;SDS011;4405;49.272;8.590;2022-08-01T05:41:12;2.60;;;2.50;;
8737;SDS011;4405;49.272;8.590;2022-08-01T05:43:39;3.47;;;2.50;;
8737;SDS011;4405;49.272;8.590;2022-08-01T05:46:05;2.50;;;2.30;;
8737;SDS011;4405;49.272;8.590;2022-08-01T05:48:33;2.57;;;2.40;;
8737;SDS011;4405;49.272;8.590;2022-08-01T05:50:59;2.40;;;2.30;;
8737;SDS011;4405;49.272;8.590;2022-08-01T05:53:26;2.47;;;2.23;;
8737;SDS011;4405;49.272;8.590;2022-08-01T05:55:52;2.70;;;2.10;;
8737;SDS011;4405;49.272;8.590;2022-08-01T05:58:18;2.87;;;2.13;;
8737;SDS011;4405;49.272;8.590;2022-08-01T06:00:45;2.10;;;1.90;;
8737;SDS011;4405;49.272;8.590;2022-08-01T06:03:11;2.33;;;2.17;;
8737;SDS011;4405;49.272;8.590;2022-08-01T06:05:40;2.80;;;2.60;;
8737;SDS011;4405;49.272;8.590;2022-08-01T06:08:07;4.87;;;2.30;;
8737;SDS011;4405;49.272;8.590;2022-08-01T06:10:33;2.70;;;2.00;;
8737;SDS011;4405;49.272;8.590;2022-08-01T06:12:59;2.50;;;1.93;;
8737;SDS011;4405;49.272;8.590;2022-08-01T06:15:27;2.00;;;1.90;;
8737;SDS011;4405;49.272;8.590;2022-08-01T06:17:54;2.00;;;1.90;;
8737;SDS011;4405;49.272;8.590;2022-08-01T06:20:20;2.37;;;1.90;;
8737;SDS011;4405;49.272;8.590;2022-08-01T06:22:48;2.23;;;2.13;;
8737;SDS011;4405;49.272;8.590;2022-08-01T06:25:16;2.77;;;2.10;;
8737;SDS011;4405;49.272;8.590;2022-08-01T06:27:42;2.23;;;2.07;;
8737;SDS011;4405;49.272;8.590;2022-08-01T06:30:09;2.07;;;1.97;;
8737;SDS011;4405;49.272;8.590;2022-08-01T06:32:36;2.27;;;2.17;;
8737;SDS011;4405;49.272;8.590;2022-08-01T06:35:02;2.30;;;1.83;;
8737;SDS011;4405;49.272;8.590;2022-08-01T06:37:29;2.20;;;2.10;;
8737;SDS011;4405;49.272;8.590;2022-08-01T06:39:57;1.77;;;1.70;;
8737;SDS011;4405;49.272;8.590;2022-08-01T06:42:25;2.17;;;1.47;;
8737;SDS011;4405;49.272;8.590;2022-08-01T06:44:52;1.70;;;1.60;;
8737;SDS011;4405;49.272;8.590;2022-08-01T06:47:18;1.87;;;1.80;;
8737;SDS011;4405;49.272;8.590;2022-08-01T06:49:44;1.83;;;1.73;;
8737;SDS011;4405;49.272;8.590;2022-08-01T06:52:11;2.00;;;1.90;;
8737;SDS011;4405;49.272;8.590;2022-08-01T06:54:37;1.93;;;1.90;;
8737;SDS011;4405;49.272;8.590;2022-08-01T06:57:05;1.80;;;1.70;;
8737;SDS011;4405;49.272;8.590;2022-08-01T06:59:32;1.60;;;1.50;;
8737;SDS011;4405;49.272;8.590;2022-08-01T07:01:59;3.83;;;1.33;;
8737;SDS011;4405;49.272;8.590;2022-08-01T07:04:26;1.67;;;1.57;;
8737;SDS011;4405;49.272;8.590;2022-08-01T07:06:52;1.17;;;1.17;;
8737;SDS011;4405;49.272;8.590;2022-08-01T07:09:18;1.50;;;1.40;;
8737;SDS011;4405;49.272;8.590;2022-08-01T07:11:45;1.50;;;1.40;;
8737;SDS011;4405;49.272;8.590;2022-08-01T07:14:13;1.40;;;1.30;;
8737;SDS011;4405;49.272;8.590;2022-08-01T07:16:39;1.60;;;1.50;;
8737;SDS011;4405;49.272;8.590;2022-08-01T07:19:05;1.50;;;1.40;;
8737;SDS011;4405;49.272;8.590;2022-08-01T07:21:32;1.47;;;1.40;;
8737;SDS011;4405;49.272;8.590;2022-08-01T07:23:59;1.53;;;1.40;;
8737;SDS011;4405;49.272;8.590;2022-08-01T07:26:26;1.43;;;1.40;;
8737;SDS011;4405;49.272;8.590;2022-08-01T07:28:52;2.30;;;1.30;;
8737;SDS011;4405;49.272;8.590;2022-08-01T07:31:20;1.30;;;1.20;;
8737;SDS011;4405;49.272;8.590;2022-08-01T07:33:47;1.27;;;1.20;;
8737;SDS011;4405;49.272;8.590;2022-08-01T07:36:14;3.00;;;1.30;;
8737;SDS011;4405;49.272;8.590;2022-08-01T07:38:41;2.87;;;1.20;;
8737;SDS011;4405;49.272;8.590;2022-08-01T07:41:07;3.03;;;1.20;;
8737;SDS011;4405;49.272;8.590;2022-08-01T07:43:33;1.80;;;1.20;;
8737;SDS011;4405;49.272;8.590;2022-08-01T07:46:00;2.23;;;1.30;;
8737;SDS011;4405;49.272;8.590;2022-08-01T07:48:28;1.20;;;1.20;;
8737;SDS011;4405;49.272;8.590;2022-08-01T07:50:55;2.30;;;1.40;;
8737;SDS011;4405;49.272;8.590;2022-08-01T07:53:21;2.00;;;1.20;;
8737;SDS011;4405;49.272;8.590;2022-08-01T07:55:48;1.30;;;1.30;;
8737;SDS011;4405;49.272;8.590;2022-08-01T07:58:14;1.90;;;1.20;;
8737;SDS011;4405;49.272;8.590;2022-08-01T08:00:40;2.87;;;1.27;;
8737;SDS011;4405;49.272;8.590;2022-08-01T08:03:07;1.80;;;1.40;;
8737;SDS011;4405;49.272;8.590;2022-08-01T08:05:35;1.43;;;1.33;;
8737;SDS011;4405;49.272;8.590;2022-08-01T08:08:01;1.20;;;1.20;;
8737;SDS011;4405;49.272;8.590;2022-08-01T08:10:27;1.10;;;1.10;;
8737;SDS011;4405;49.272;8.590;2022-08-01T08:12:54;1.43;;;1.20;;
8737;SDS011;4405;49.272;8.590;2022-08-01T08:15:20;1.00;;;1.00;;
8737;SDS011;4405;49.272;8.590;2022-08-01T08:17:46;1.17;;;1.17;;
8737;SDS011;4405;49.272;8.590;2022-08-01T08:20:13;1.03;;;1.03;;
8737;SDS011;4405;49.272;8.590;2022-08-01T08:22:41;3.63;;;1.10;;
8737;SDS011;4405;49.272;8.590;2022-08-01T08:25:07;1.20;;;1.20;;
8737;SDS011;4405;49.272;8.590;2022-08-01T08:27:34;1.53;;;1.10;;
8737;SDS011;4405;49.272;8.590;2022-08-01T08:30:01;1.23;;;1.13;;
8737;SDS011;4405;49.272;8.590;2022-08-01T08:32:27;0.97;;;0.90;;
8737;SDS011;4405;49.272;8.590;2022-08-01T08:34:54;1.03;;;1.00;;
8737;SDS011;4405;49.272;8.590;2022-08-01T08:37:20;2.27;;;1.10;;
8737;SDS011;4405;49.272;8.590;2022-08-01T08:39:48;1.10;;;1.10;;
8737;SDS011;4405;49.272;8.590;2022-08-01T08:42:14;1.10;;;1.10;;
8737;SDS011;4405;49.272;8.590;2022-08-01T08:44:41;0.80;;;0.80;;
8737;SDS011;4405;49.272;8.590;2022-08-01T08:47:08;1.17;;;1.00;;
8737;SDS011;4405;49.272;8.590;2022-08-01T08:49:36;1.17;;;0.80;;
8737;SDS011;4405;49.272;8.590;2022-08-01T08:52:03;1.00;;;1.00;;
8737;SDS011;4405;49.272;8.590;2022-08-01T08:54:30;1.30;;;1.00;;
8737;SDS011;4405;49.272;8.590;2022-08-01T08:56:59;1.00;;;1.00;;
8737;SDS011;4405;49.272;8.590;2022-08-01T08:59:26;0.90;;;0.90;;
8737;SDS011;4405;49.272;8.590;2022-08-01T09:01:53;0.97;;;0.97;;
8737;SDS011;4405;49.272;8.590;2022-08-01T09:04:20;0.90;;;0.90;;
8737;SDS011;4405;49.272;8.590;2022-08-01T09:06:47;1.80;;;0.80;;
8737;SDS011;4405;49.272;8.590;2022-08-01T09:09:13;4.23;;;1.00;;
8737;SDS011;4405;49.272;8.590;2022-08-01T09:11:40;0.93;;;0.93;;
8737;SDS011;4405;49.272;8.590;2022-08-01T09:14:09;3.20;;;1.30;;
8737;SDS011;4405;49.272;8.590;2022-08-01T09:16:36;1.33;;;1.00;;
8737;SDS011;4405;49.272;8.590;2022-08-01T09:19:06;1.00;;;1.00;;
8737;SDS011;4405;49.272;8.590;2022-08-01T09:21:33;1.00;;;1.00;;
8737;SDS011;4405;49.272;8.590;2022-08-01T09:23:59;1.00;;;1.00;;
8737;SDS011;4405;49.272;8.590;2022-08-01T09:26:28;1.50;;;1.13;;
8737;SDS011;4405;49.272;8.590;2022-08-01T09:28:55;1.53;;;1.10;;
8737;SDS011;4405;49.272;8.590;2022-08-01T09:31:22;1.30;;;1.20;;
8737;SDS011;4405;49.272;8.590;2022-08-01T09:33:52;1.43;;;1.10;;
8737;SDS011;4405;49.272;8.590;2022-08-01T09:36:19;1.10;;;1.10;;
8737;SDS011;4405;49.272;8.590;2022-08-01T09:38:46;1.10;;;1.10;;
8737;SDS011;4405;49.272;8.590;2022-08-01T09:41:13;1.13;;;1.03;;
8737;SDS011;4405;49.272;8.590;2022-08-01T09:43:39;6.30;;;1.30;;
8737;SDS011;4405;49.272;8.590;2022-08-01T09:46:08;1.30;;;1.10;;
8737;SDS011;4405;49.272;8.590;2022-08-01T09:48:37;1.27;;;1.10;;
8737;SDS011;4405;49.272;8.590;2022-08-01T09:51:04;2.23;;;1.23;;
8737;SDS011;4405;49.272;8.590;2022-08-01T09:53:39;1.60;;;1.13;;
8737;SDS011;4405;49.272;8.590;2022-08-01T09:56:09;4.50;;;1.60;;
8737;SDS011;4405;49.272;8.590;2022-08-01T09:58:48;1.20;;;1.20;;
8737;SDS011;4405;49.272;8.590;2022-08-01T10:01:14;4.70;;;1.40;;
8737;SDS011;4405;49.272;8.590;2022-08-01T10:03:42;1.20;;;1.20;;
8737;SDS011;4405;49.272;8.590;2022-08-01T10:06:18;5.47;;;1.67;;
8737;SDS011;4405;49.272;8.590;2022-08-01T10:08:45;13.50;;;1.90;;
8737;SDS011;4405;49.272;8.590;2022-08-01T10:11:11;1.40;;;1.30;;
8737;SDS011;4405;49.272;8.590;2022-08-01T10:13:38;2.10;;;1.50;;
8737;SDS011;4405;49.272;8.590;2022-08-01T10:16:05;8.43;;;1.90;;
8737;SDS011;4405;49.272;8.590;2022-08-01T10:18:32;3.10;;;1.53;;
8737;SDS011;4405;49.272;8.590;2022-08-01T10:21:01;3.67;;;1.50;;
8737;SDS011;4405;49.272;8.590;2022-08-01T10:23:27;1.33;;;1.20;;
8737;SDS011;4405;49.272;8.590;2022-08-01T10:25:56;3.80;;;1.30;;
8737;SDS011;4405;49.272;8.590;2022-08-01T10:28:24;2.80;;;1.50;;
8737;SDS011;4405;49.272;8.590;2022-08-01T10:30:51;3.00;;;1.43;;
8737;SDS011;4405;49.272;8.590;2022-08-01T10:33:18;3.73;;;1.40;;
8737;SDS011;4405;49.272;8.590;2022-08-01T10:35:45;5.90;;;1.70;;
8737;SDS011;4405;49.272;8.590;2022-08-01T10:38:13;2.40;;;1.50;;
8737;SDS011;4405;49.272;8.590;2022-08-01T10:40:39;3.57;;;1.60;;
8737;SDS011;4405;49.272;8.590;2022-08-01T10:43:06;1.93;;;1.50;;
8737;SDS011;4405;49.272;8.590;2022-08-01T10:45:32;1.87;;;1.77;;
8737;SDS011;4405;49.272;8.590;2022-08-01T10:48:00;1.90;;;1.50;;
8737;SDS011;4405;49.272;8.590;2022-08-01T10:50:29;1.37;;;1.27;;
8737;SDS011;4405;49.272;8.590;2022-08-01T10:53:03;1.37;;;1.37;;
8737;SDS011;4405;49.272;8.590;2022-08-01T10:55:38;2.20;;;1.50;;
8737;SDS011;4405;49.272;8.590;2022-08-01T10:58:11;1.90;;;1.40;;
8737;SDS011;4405;49.272;8.590;2022-08-01T11:00:37;1.63;;;1.53;;
8737;SDS011;4405;49.272;8.590;2022-08-01T11:03:03;1.67;;;1.57;;
8737;SDS011;4405;49.272;8.590;2022-08-01T11:05:31;1.50;;;1.50;;
8737;SDS011;4405;49.272;8.590;2022-08-01T11:07:58;1.63;;;1.53;;
8737;SDS011;4405;49.272;8.590;2022-08-01T11:10:28;1.63;;;1.50;;
8737;SDS011;4405;49.272;8.590;2022-08-01T11:12:57;2.00;;;1.83;;
8737;SDS011;4405;49.272;8.590;2022-08-01T11:15:26;2.13;;;1.93;;
8737;SDS011;4405;49.272;8.590;2022-08-01T11:17:53;1.60;;;1.50;;
8737;SDS011;4405;49.272;8.590;2022-08-01T11:20:20;4.40;;;1.83;;
8737;SDS011;4405;49.272;8.590;2022-08-01T11:28:19;1.40;;;1.40;;
8737;SDS011;4405;49.272;8.590;2022-08-01T11:30:46;1.53;;;1.50;;
8737;SDS011;4405;49.272;8.590;2022-08-01T11:33:13;3.03;;;1.80;;
8737;SDS011;4405;49.272;8.590;2022-08-01T11:36:16;3.80;;;1.40;;
8737;SDS011;4405;49.272;8.590;2022-08-01T11:38:35;1.73;;;1.50;;
8737;SDS011;4405;49.272;8.590;2022-08-01T11:41:09;1.47;;;1.33;;
8737;SDS011;4405;49.272;8.590;2022-08-01T11:43:35;1.70;;;1.60;;
8737;SDS011;4405;49.272;8.590;2022-08-01T11:46:01;3.63;;;1.40;;
8737;SDS011;4405;49.272;8.590;2022-08-01T11:48:29;1.50;;;1.50;;
8737;SDS011;4405;49.272;8.590;2022-08-01T11:50:55;1.50;;;1.50;;
8737;SDS011;4405;49.272;8.590;2022-08-01T11:53:22;2.00;;;1.60;;
8737;SDS011;4405;49.272;8.590;2022-08-01T11:55:50;1.60;;;1.50;;
8737;SDS011;4405;49.272;8.590;2022-08-01T11:58:20;1.50;;;1.50;;
8737;SDS011;4405;49.272;8.590;2022-08-01T12:00:49;3.03;;;1.40;;
8737;SDS011;4405;49.272;8.590;2022-08-01T12:03:16;1.40;;;1.40;;
8737;SDS011;4405;49.272;8.590;2022-08-01T12:05:43;1.60;;;1.30;;
8737;SDS011;4405;49.272;8.590;2022-08-01T12:08:10;1.33;;;1.33;;
8737;SDS011;4405;49.272;8.590;2022-08-01T12:10:36;1.60;;;1.33;;
8737;SDS011;4405;49.272;8.590;2022-08-01T12:13:04;1.53;;;1.53;;
8737;SDS011;4405;49.272;8.590;2022-08-01T12:15:32;3.47;;;1.50;;
8737;SDS011;4405;49.272;8.590;2022-08-01T12:17:59;3.77;;;1.90;;
8737;SDS011;4405;49.272;8.590;2022-08-01T12:20:26;1.50;;;1.50;;
8737;SDS011;4405;49.272;8.590;2022-08-01T12:22:53;1.30;;;1.30;;
8737;SDS011;4405;49.272;8.590;2022-08-01T12:25:20;2.20;;;1.47;;
8737;SDS011;4405;49.272;8.590;2022-08-01T12:27:47;3.10;;;1.60;;
8737;SDS011;4405;49.272;8.590;2022-08-01T12:30:15;4.30;;;1.60;;
8737;SDS011;4405;49.272;8.590;2022-08-01T12:32:42;1.97;;;1.50;;
8737;SDS011;4405;49.272;8.590;2022-08-01T12:35:10;1.70;;;1.60;;
8737;SDS011;4405;49.272;8.590;2022-08-01T12:37:37;1.60;;;1.50;;
8737;SDS011;4405;49.272;8.590;2022-08-01T12:40:11;1.80;;;1.70;;
8737;SDS011;4405;49.272;8.590;2022-08-01T12:42:38;1.70;;;1.47;;
8737;SDS011;4405;49.272;8.590;2022-08-01T12:45:06;1.60;;;1.40;;
8737;SDS011;4405;49.272;8.590;2022-08-01T12:47:35;1.47;;;1.47;;
8737;SDS011;4405;49.272;8.590;2022-08-01T12:50:02;1.73;;;1.60;;
8737;SDS011;4405;49.272;8.590;2022-08-01T12:52:29;1.50;;;1.50;;
8737;SDS011;4405;49.272;8.590;2022-08-01T12:55:05;1.57;;;1.57;;
8737;SDS011;4405;49.272;8.590;2022-08-01T12:57:33;1.50;;;1.40;;
8737;SDS011;4405;49.272;8.590;2022-08-01T13:00:07;1.60;;;1.50;;
8737;SDS011;4405;49.272;8.590;2022-08-01T13:02:35;1.23;;;1.23;;
8737;SDS011;4405;49.272;8.590;2022-08-01T13:05:02;2.17;;;1.40;;
8737;SDS011;4405;49.272;8.590;2022-08-01T13:07:39;2.55;;;1.60;;
8737;SDS011;4405;49.272;8.590;2022-08-01T13:10:06;2.17;;;1.50;;
8737;SDS011;4405;49.272;8.590;2022-08-01T13:12:33;1.23;;;1.23;;
8737;SDS011;4405;49.272;8.590;2022-08-01T13:14:59;1.35;;;1.35;;
8737;SDS011;4405;49.272;8.590;2022-08-01T13:17:29;1.67;;;1.40;;
8737;SDS011;4405;49.272;8.590;2022-08-01T13:19:57;1.65;;;1.50;;
8737;SDS011;4405;49.272;8.590;2022-08-01T13:22:31;1.42;;;1.40;;
8737;SDS011;4405;49.272;8.590;2022-08-01T13:25:08;2.65;;;1.38;;
8737;SDS011;4405;49.272;8.590;2022-08-01T13:27:35;1.38;;;1.23;;
8737;SDS011;4405;49.272;8.590;2022-08-01T13:30:09;2.70;;;1.60;;
8737;SDS011;4405;49.272;8.590;2022-08-01T13:32:36;1.30;;;1.30;;
8737;SDS011;4405;49.272;8.590;2022-08-01T13:35:05;1.30;;;1.20;;
8737;SDS011;4405;49.272;8.590;2022-08-01T13:37:32;1.30;;;1.30;;
8737;SDS011;4405;49.272;8.590;2022-08-01T13:39:58;2.00;;;1.50;;
8737;SDS011;4405;49.272;8.590;2022-08-01T13:42:25;1.43;;;1.43;;
8737;SDS011;4405;49.272;8.590;2022-08-01T13:44:51;2.83;;;1.37;;
8737;SDS011;4405;49.272;8.590;2022-08-01T13:47:18;1.30;;;1.30;;
8737;SDS011;4405;49.272;8.590;2022-08-01T13:49:44;1.90;;;1.20;;
8737;SDS011;4405;49.272;8.590;2022-08-01T13:52:12;1.30;;;1.30;;
8737;SDS011;4405;49.272;8.590;2022-08-01T13:54:38;1.53;;;1.30;;
8737;SDS011;4405;49.272;8.590;2022-08-01T13:57:05;1.43;;;1.30;;
8737;SDS011;4405;49.272;8.590;2022-08-01T13:59:31;1.53;;;1.30;;
8737;SDS011;4405;49.272;8.590;2022-08-01T14:01:57;1.30;;;1.30;;
8737;SDS011;4405;49.272;8.590;2022-08-01T14:04:24;1.23;;;1.23;;
8737;SDS011;4405;49.272;8.590;2022-08-01T14:06:50;2.20;;;1.40;;
8737;SDS011;4405;49.272;8.590;2022-08-01T14:09:18;1.30;;;1.30;;
8737;SDS011;4405;49.272;8.590;2022-08-01T14:11:47;1.80;;;1.30;;
8737;SDS011;4405;49.272;8.590;2022-08-01T14:14:14;1.30;;;1.30;;
8737;SDS011;4405;49.272;8.590;2022-08-01T14:16:41;1.60;;;1.50;;
8737;SDS011;4405;49.272;8.590;2022-08-01T14:19:09;1.30;;;1.20;;
8737;SDS011;4405;49.272;8.590;2022-08-01T14:21:36;1.77;;;1.53;;
8737;SDS011;4405;49.272;8.590;2022-08-01T14:24:02;1.40;;;1.30;;
8737;SDS011;4405;49.272;8.590;2022-08-01T14:26:30;1.70;;;1.47;;
8737;SDS011;4405;49.272;8.590;2022-08-01T14:28:56;1.37;;;1.37;;
8737;SDS011;4405;49.272;8.590;2022-08-01T14:31:23;2.10;;;1.20;;
8737;SDS011;4405;49.272;8.590;2022-08-01T14:33:49;1.57;;;1.47;;
8737;SDS011;4405;49.272;8.590;2022-08-01T14:36:15;1.40;;;1.40;;
8737;SDS011;4405;49.272;8.590;2022-08-01T14:38:42;2.20;;;1.40;;
8737;SDS011;4405;49.272;8.590;2022-08-01T14:41:08;1.50;;;1.40;;
8737;SDS011;4405;49.272;8.590;2022-08-01T14:43:36;1.50;;;1.40;;
8737;SDS011;4405;49.272;8.590;2022-08-01T14:46:02;1.23;;;1.17;;
8737;SDS011;4405;49.272;8.590;2022-08-01T14:48:29;1.60;;;1.13;;
8737;SDS011;4405;49.272;8.590;2022-08-01T14:50:55;1.33;;;1.03;;
8737;SDS011;4405;49.272;8.590;2022-08-01T14:53:22;4.03;;;1.23;;
8737;SDS011;4405;49.272;8.590;2022-08-01T14:55:48;1.10;;;1.10;;
8737;SDS011;4405;49.272;8.590;2022-08-01T14:58:14;1.07;;;1.03;;
8737;SDS011;4405;49.272;8.590;2022-08-01T15:00:42;1.17;;;1.17;;
8737;SDS011;4405;49.272;8.590;2022-08-01T15:03:09;1.70;;;1.03;;
8737;SDS011;4405;49.272;8.590;2022-08-01T15:05:35;1.20;;;1.20;;
8737;SDS011;4405;49.272;8.590;2022-08-01T15:08:02;1.57;;;1.10;;
8737;SDS011;4405;49.272;8.590;2022-08-01T15:10:28;1.70;;;1.13;;
8737;SDS011;4405;49.272;8.590;2022-08-01T15:12:57;1.10;;;1.00;;
8737;SDS011;4405;49.272;8.590;2022-08-01T15:15:24;3.53;;;1.20;;
8737;SDS011;4405;49.272;8.590;2022-08-01T15:17:52;1.00;;;1.00;;
8737;SDS011;4405;49.272;8.590;2022-08-01T15:20:19;1.30;;;1.20;;
8737;SDS011;4405;49.272;8.590;2022-08-01T15:22:45;2.03;;;1.10;;